sensor_id;sensor_type;location;lat;lon;timestamp;P1;durP1;ratioP1;P2;durP2;ratioP2
20036;SDS011;10179;42.640;23.312;2024-01-30T00:00:33;7.95;;;4.18;;
20036;SDS011;10179;42.640;23.312;2024-01-30T00:02:59;10.55;;;4.72;;
20036;SDS011;10179;42.640;23.312;2024-01-30T00:05:24;6.47;;;3.67;;
20036;SDS011;10179;42.640;23.312;2024-01-30T00:07:50;8.30;;;4.28;;
20036;SDS011;10179;42.640;23.312;2024-01-30T00:10:15;6.50;;;3.65;;
20036;SDS011;10179;42.640;23.312;2024-01-30T00:12:41;8.02;;;4.00;;
20036;SDS011;10179;42.640;23.312;2024-01-30T00:15:06;9.07;;;3.90;;
20036;SDS011;10179;42.640;23.312;2024-01-30T00:17:34;7.80;;;4.22;;
20036;SDS011;10179;42.640;23.312;2024-01-30T00:20:01;7.80;;;4.10;;
20036;SDS011;10179;42.640;23.312;2024-01-30T00:22:30;5.95;;;3.78;;
20036;SDS011;10179;42.640;23.312;2024-01-30T00:24:56;4.53;;;3.40;;
20036;SDS011;10179;42.640;23.312;2024-01-30T00:27:21;6.88;;;4.07;;
20036;SDS011;10179;42.640;23.312;2024-01-30T00:29:46;7.20;;;3.42;;
20036;SDS011;10179;42.640;23.312;2024-01-30T00:32:12;6.80;;;4.25;;
20036;SDS011;10179;42.640;23.312;2024-01-30T00:34:37;8.00;;;4.07;;
20036;SDS011;10179;42.640;23.312;2024-01-30T00:37:03;6.22;;;4.30;;
20036;SDS011;10179;42.640;23.312;2024-01-30T00:39:28;8.40;;;4.72;;
20036;SDS011;10179;42.640;23.312;2024-01-30T00:41:54;7.75;;;4.60;;
20036;SDS011;10179;42.640;23.312;2024-01-30T00:44:19;7.18;;;4.32;;
20036;SDS011;10179;42.640;23.312;2024-01-30T00:46:45;6.03;;;3.85;;
20036;SDS011;10179;42.640;23.312;2024-01-30T00:49:10;6.63;;;3.95;;
20036;SDS011;10179;42.640;23.312;2024-01-30T00:51:36;6.78;;;3.85;;
20036;SDS011;10179;42.640;23.312;2024-01-30T00:54:01;10.40;;;5.57;;
20036;SDS011;10179;42.640;23.312;2024-01-30T00:56:27;10.30;;;6.03;;
20036;SDS011;10179;42.640;23.312;2024-01-30T00:58:53;9.20;;;5.03;;
20036;SDS011;10179;42.640;23.312;2024-01-30T01:01:19;8.00;;;5.05;;
20036;SDS011;10179;42.640;23.312;2024-01-30T01:03:44;7.78;;;4.70;;
20036;SDS011;10179;42.640;23.312;2024-01-30T01:06:10;8.70;;;4.50;;
20036;SDS011;10179;42.640;23.312;2024-01-30T01:08:36;10.40;;;5.57;;
20036;SDS011;10179;42.640;23.312;2024-01-30T01:11:01;9.52;;;5.40;;
20036;SDS011;10179;42.640;23.312;2024-01-30T01:13:28;8.70;;;5.50;;
20036;SDS011;10179;42.640;23.312;2024-01-30T01:15:54;8.43;;;4.80;;
20036;SDS011;10179;42.640;23.312;2024-01-30T01:18:20;10.23;;;5.28;;
20036;SDS011;10179;42.640;23.312;2024-01-30T01:20:45;7.57;;;4.72;;
20036;SDS011;10179;42.640;23.312;2024-01-30T01:23:10;9.13;;;5.00;;
20036;SDS011;10179;42.640;23.312;2024-01-30T01:25:36;7.70;;;4.75;;
20036;SDS011;10179;42.640;23.312;2024-01-30T01:28:02;7.32;;;3.90;;
20036;SDS011;10179;42.640;23.312;2024-01-30T01:30:28;7.10;;;4.07;;
20036;SDS011;10179;42.640;23.312;2024-01-30T01:32:54;6.78;;;4.30;;
20036;SDS011;10179;42.640;23.312;2024-01-30T01:35:25;6.40;;;4.35;;
20036;SDS011;10179;42.640;23.312;2024-01-30T01:37:52;6.45;;;3.60;;
20036;SDS011;10179;42.640;23.312;2024-01-30T01:40:22;6.25;;;3.70;;
20036;SDS011;10179;42.640;23.312;2024-01-30T01:42:49;6.57;;;4.28;;
20036;SDS011;10179;42.640;23.312;2024-01-30T01:45:20;6.72;;;4.32;;
20036;SDS011;10179;42.640;23.312;2024-01-30T01:47:53;8.02;;;4.70;;
20036;SDS011;10179;42.640;23.312;2024-01-30T01:50:19;6.78;;;3.78;;
20036;SDS011;10179;42.640;23.312;2024-01-30T01:52:49;9.63;;;4.57;;
20036;SDS011;10179;42.640;23.312;2024-01-30T01:55:16;8.15;;;4.60;;
20036;SDS011;10179;42.640;23.312;2024-01-30T01:57:43;9.38;;;5.28;;
20036;SDS011;10179;42.640;23.312;2024-01-30T02:00:09;8.98;;;4.60;;
20036;SDS011;10179;42.640;23.312;2024-01-30T02:02:36;5.63;;;3.65;;
20036;SDS011;10179;42.640;23.312;2024-01-30T02:05:02;4.60;;;3.03;;
20036;SDS011;10179;42.640;23.312;2024-01-30T02:07:28;5.90;;;3.85;;
20036;SDS011;10179;42.640;23.312;2024-01-30T02:09:53;6.97;;;4.00;;
20036;SDS011;10179;42.640;23.312;2024-01-30T02:12:20;7.07;;;3.55;;
20036;SDS011;10179;42.640;23.312;2024-01-30T02:14:45;5.90;;;3.92;;
20036;SDS011;10179;42.640;23.312;2024-01-30T02:17:12;16.20;;;4.43;;
20036;SDS011;10179;42.640;23.312;2024-01-30T02:19:37;5.53;;;3.95;;
20036;SDS011;10179;42.640;23.312;2024-01-30T02:22:03;6.90;;;3.97;;
20036;SDS011;10179;42.640;23.312;2024-01-30T02:24:29;7.70;;;4.03;;
20036;SDS011;10179;42.640;23.312;2024-01-30T02:26:54;5.53;;;3.58;;
20036;SDS011;10179;42.640;23.312;2024-01-30T02:29:20;6.53;;;3.70;;
20036;SDS011;10179;42.640;23.312;2024-01-30T02:31:46;10.48;;;3.90;;
20036;SDS011;10179;42.640;23.312;2024-01-30T02:34:11;8.55;;;3.47;;
20036;SDS011;10179;42.640;23.312;2024-01-30T02:36:37;7.72;;;4.00;;
20036;SDS011;10179;42.640;23.312;2024-01-30T02:39:03;6.10;;;3.72;;
20036;SDS011;10179;42.640;23.312;2024-01-30T02:41:28;9.07;;;3.70;;
20036;SDS011;10179;42.640;23.312;2024-01-30T02:43:54;5.05;;;3.13;;
20036;SDS011;10179;42.640;23.312;2024-01-30T02:46:19;7.43;;;4.32;;
20036;SDS011;10179;42.640;23.312;2024-01-30T02:48:45;6.45;;;3.92;;
20036;SDS011;10179;42.640;23.312;2024-01-30T02:51:10;7.13;;;3.53;;
20036;SDS011;10179;42.640;23.312;2024-01-30T02:53:36;6.75;;;3.85;;
20036;SDS011;10179;42.640;23.312;2024-01-30T02:56:04;7.88;;;4.05;;
20036;SDS011;10179;42.640;23.312;2024-01-30T02:58:30;7.32;;;3.78;;
20036;SDS011;10179;42.640;23.312;2024-01-30T03:00:56;7.45;;;3.92;;
20036;SDS011;10179;42.640;23.312;2024-01-30T03:03:21;7.22;;;4.20;;
20036;SDS011;10179;42.640;23.312;2024-01-30T03:05:47;6.85;;;4.20;;
20036;SDS011;10179;42.640;23.312;2024-01-30T03:08:12;6.63;;;4.05;;
20036;SDS011;10179;42.640;23.312;2024-01-30T03:10:37;10.05;;;3.60;;
20036;SDS011;10179;42.640;23.312;2024-01-30T03:13:03;7.50;;;4.40;;
20036;SDS011;10179;42.640;23.312;2024-01-30T03:15:28;7.60;;;4.40;;
20036;SDS011;10179;42.640;23.312;2024-01-30T03:17:54;8.00;;;4.20;;
20036;SDS011;10179;42.640;23.312;2024-01-30T03:20:20;6.07;;;3.72;;
20036;SDS011;10179;42.640;23.312;2024-01-30T03:22:45;8.27;;;3.97;;
20036;SDS011;10179;42.640;23.312;2024-01-30T03:25:10;8.20;;;3.95;;
20036;SDS011;10179;42.640;23.312;2024-01-30T03:27:36;8.13;;;4.10;;
20036;SDS011;10179;42.640;23.312;2024-01-30T03:30:01;7.88;;;3.97;;
20036;SDS011;10179;42.640;23.312;2024-01-30T03:32:27;8.43;;;4.28;;
20036;SDS011;10179;42.640;23.312;2024-01-30T03:34:53;7.53;;;3.70;;
20036;SDS011;10179;42.640;23.312;2024-01-30T03:37:18;7.88;;;3.97;;
20036;SDS011;10179;42.640;23.312;2024-01-30T03:39:44;5.72;;;3.63;;
20036;SDS011;10179;42.640;23.312;2024-01-30T03:42:09;13.77;;;6.45;;
20036;SDS011;10179;42.640;23.312;2024-01-30T03:44:35;9.90;;;5.47;;
20036;SDS011;10179;42.640;23.312;2024-01-30T03:47:00;12.88;;;7.13;;
20036;SDS011;10179;42.640;23.312;2024-01-30T03:49:26;9.55;;;4.50;;
20036;SDS011;10179;42.640;23.312;2024-01-30T03:51:51;8.43;;;4.28;;
20036;SDS011;10179;42.640;23.312;2024-01-30T03:54:16;8.80;;;4.20;;
20036;SDS011;10179;42.640;23.312;2024-01-30T03:56:42;7.93;;;3.72;;
20036;SDS011;10179;42.640;23.312;2024-01-30T03:59:07;9.38;;;4.18;;
20036;SDS011;10179;42.640;23.312;2024-01-30T04:01:33;6.57;;;3.83;;
20036;SDS011;10179;42.640;23.312;2024-01-30T04:03:58;8.82;;;4.55;;
20036;SDS011;10179;42.640;23.312;2024-01-30T04:06:24;9.30;;;4.30;;
20036;SDS011;10179;42.640;23.312;2024-01-30T04:08:49;4.88;;;2.97;;
20036;SDS011;10179;42.640;23.312;2024-01-30T04:11:14;7.80;;;3.85;;
20036;SDS011;10179;42.640;23.312;2024-01-30T04:13:40;10.05;;;3.80;;
20036;SDS011;10179;42.640;23.312;2024-01-30T04:16:08;4.70;;;3.03;;
20036;SDS011;10179;42.640;23.312;2024-01-30T04:18:33;5.40;;;3.22;;
20036;SDS011;10179;42.640;23.312;2024-01-30T04:20:59;11.40;;;3.15;;
20036;SDS011;10179;42.640;23.312;2024-01-30T04:23:24;5.07;;;3.40;;
20036;SDS011;10179;42.640;23.312;2024-01-30T04:25:50;3.50;;;2.67;;
20036;SDS011;10179;42.640;23.312;2024-01-30T04:28:15;4.93;;;3.10;;
20036;SDS011;10179;42.640;23.312;2024-01-30T04:30:41;3.35;;;2.00;;
20036;SDS011;10179;42.640;23.312;2024-01-30T04:33:06;3.55;;;2.28;;
20036;SDS011;10179;42.640;23.312;2024-01-30T04:35:32;3.92;;;2.20;;
20036;SDS011;10179;42.640;23.312;2024-01-30T04:37:57;4.18;;;2.30;;
20036;SDS011;10179;42.640;23.312;2024-01-30T04:40:22;5.22;;;2.08;;
20036;SDS011;10179;42.640;23.312;2024-01-30T04:42:48;5.80;;;3.58;;
20036;SDS011;10179;42.640;23.312;2024-01-30T04:45:14;5.38;;;2.90;;
20036;SDS011;10179;42.640;23.312;2024-01-30T04:47:39;3.60;;;1.83;;
20036;SDS011;10179;42.640;23.312;2024-01-30T04:50:08;4.95;;;2.30;;
20036;SDS011;10179;42.640;23.312;2024-01-30T04:52:34;2.78;;;2.08;;
20036;SDS011;10179;42.640;23.312;2024-01-30T04:54:59;3.92;;;2.63;;
20036;SDS011;10179;42.640;23.312;2024-01-30T04:57:25;10.32;;;4.20;;
20036;SDS011;10179;42.640;23.312;2024-01-30T04:59:50;11.82;;;3.90;;
20036;SDS011;10179;42.640;23.312;2024-01-30T05:02:16;8.63;;;4.40;;
20036;SDS011;10179;42.640;23.312;2024-01-30T05:04:41;7.43;;;3.95;;
20036;SDS011;10179;42.640;23.312;2024-01-30T05:07:07;9.95;;;4.55;;
20036;SDS011;10179;42.640;23.312;2024-01-30T05:09:32;8.48;;;4.70;;
20036;SDS011;10179;42.640;23.312;2024-01-30T05:11:57;8.88;;;4.63;;
20036;SDS011;10179;42.640;23.312;2024-01-30T05:14:23;6.88;;;3.75;;
20036;SDS011;10179;42.640;23.312;2024-01-30T05:16:48;6.82;;;4.30;;
20036;SDS011;10179;42.640;23.312;2024-01-30T05:19:14;9.95;;;3.53;;
20036;SDS011;10179;42.640;23.312;2024-01-30T05:21:40;12.77;;;4.07;;
20036;SDS011;10179;42.640;23.312;2024-01-30T05:24:06;9.07;;;3.45;;
20036;SDS011;10179;42.640;23.312;2024-01-30T05:26:32;5.68;;;3.05;;
20036;SDS011;10179;42.640;23.312;2024-01-30T05:28:57;9.05;;;3.50;;
20036;SDS011;10179;42.640;23.312;2024-01-30T05:31:23;6.90;;;3.60;;
20036;SDS011;10179;42.640;23.312;2024-01-30T05:33:50;7.57;;;3.85;;
20036;SDS011;10179;42.640;23.312;2024-01-30T05:36:15;8.77;;;3.83;;
20036;SDS011;10179;42.640;23.312;2024-01-30T05:38:40;7.07;;;3.63;;
20036;SDS011;10179;42.640;23.312;2024-01-30T05:41:06;5.53;;;2.95;;
20036;SDS011;10179;42.640;23.312;2024-01-30T05:43:32;10.82;;;4.75;;
20036;SDS011;10179;42.640;23.312;2024-01-30T05:45:58;8.93;;;5.35;;
20036;SDS011;10179;42.640;23.312;2024-01-30T05:48:24;13.75;;;5.40;;
20036;SDS011;10179;42.640;23.312;2024-01-30T05:50:49;9.95;;;5.18;;
20036;SDS011;10179;42.640;23.312;2024-01-30T05:53:14;54.28;;;18.48;;
20036;SDS011;10179;42.640;23.312;2024-01-30T05:55:40;59.60;;;21.00;;
20036;SDS011;10179;42.640;23.312;2024-01-30T05:58:06;21.02;;;8.98;;
20036;SDS011;10179;42.640;23.312;2024-01-30T06:00:31;18.15;;;7.90;;
20036;SDS011;10179;42.640;23.312;2024-01-30T06:02:57;11.32;;;5.57;;
20036;SDS011;10179;42.640;23.312;2024-01-30T06:05:22;10.23;;;5.28;;
20036;SDS011;10179;42.640;23.312;2024-01-30T06:07:47;10.15;;;5.10;;
20036;SDS011;10179;42.640;23.312;2024-01-30T06:10:13;8.02;;;4.22;;
20036;SDS011;10179;42.640;23.312;2024-01-30T06:12:39;11.68;;;4.40;;
20036;SDS011;10179;42.640;23.312;2024-01-30T06:15:05;8.70;;;4.20;;
20036;SDS011;10179;42.640;23.312;2024-01-30T06:17:31;11.27;;;3.85;;
20036;SDS011;10179;42.640;23.312;2024-01-30T06:19:57;14.30;;;4.63;;
20036;SDS011;10179;42.640;23.312;2024-01-30T06:22:23;12.00;;;3.75;;
20036;SDS011;10179;42.640;23.312;2024-01-30T06:24:48;17.38;;;4.22;;
20036;SDS011;10179;42.640;23.312;2024-01-30T06:27:14;10.23;;;3.97;;
20036;SDS011;10179;42.640;23.312;2024-01-30T06:29:40;7.75;;;4.30;;
20036;SDS011;10179;42.640;23.312;2024-01-30T06:32:07;10.82;;;4.40;;
20036;SDS011;10179;42.640;23.312;2024-01-30T06:34:33;10.18;;;4.68;;
20036;SDS011;10179;42.640;23.312;2024-01-30T06:36:59;10.98;;;2.78;;
20036;SDS011;10179;42.640;23.312;2024-01-30T06:39:25;22.40;;;3.83;;
20036;SDS011;10179;42.640;23.312;2024-01-30T06:41:51;11.32;;;3.25;;
20036;SDS011;10179;42.640;23.312;2024-01-30T06:44:16;6.93;;;3.75;;
20036;SDS011;10179;42.640;23.312;2024-01-30T06:46:42;7.20;;;3.20;;
20036;SDS011;10179;42.640;23.312;2024-01-30T06:49:07;5.30;;;3.00;;
20036;SDS011;10179;42.640;23.312;2024-01-30T06:51:33;6.75;;;2.80;;
20036;SDS011;10179;42.640;23.312;2024-01-30T06:53:58;4.03;;;1.90;;
20036;SDS011;10179;42.640;23.312;2024-01-30T06:56:24;4.28;;;2.00;;
20036;SDS011;10179;42.640;23.312;2024-01-30T06:58:50;3.90;;;2.28;;
20036;SDS011;10179;42.640;23.312;2024-01-30T07:01:15;2.55;;;1.65;;
20036;SDS011;10179;42.640;23.312;2024-01-30T07:03:42;2.58;;;1.40;;
20036;SDS011;10179;42.640;23.312;2024-01-30T07:06:07;4.50;;;1.80;;
20036;SDS011;10179;42.640;23.312;2024-01-30T07:08:33;11.38;;;2.00;;
20036;SDS011;10179;42.640;23.312;2024-01-30T07:10:59;3.42;;;2.25;;
20036;SDS011;10179;42.640;23.312;2024-01-30T07:13:24;2.45;;;1.70;;
20036;SDS011;10179;42.640;23.312;2024-01-30T07:15:50;2.67;;;1.73;;
20036;SDS011;10179;42.640;23.312;2024-01-30T07:18:15;3.58;;;1.50;;
20036;SDS011;10179;42.640;23.312;2024-01-30T07:20:41;3.13;;;1.60;;
20036;SDS011;10179;42.640;23.312;2024-01-30T07:23:12;12.02;;;2.70;;
20036;SDS011;10179;42.640;23.312;2024-01-30T07:25:40;3.33;;;2.10;;
20036;SDS011;10179;42.640;23.312;2024-01-30T07:28:07;6.22;;;2.50;;
20036;SDS011;10179;42.640;23.312;2024-01-30T07:30:34;8.80;;;1.90;;
20036;SDS011;10179;42.640;23.312;2024-01-30T07:32:59;2.55;;;1.38;;
20036;SDS011;10179;42.640;23.312;2024-01-30T07:35:25;3.15;;;1.77;;
20036;SDS011;10179;42.640;23.312;2024-01-30T07:37:50;2.78;;;1.67;;
20036;SDS011;10179;42.640;23.312;2024-01-30T07:40:16;1.92;;;1.50;;
20036;SDS011;10179;42.640;23.312;2024-01-30T07:42:42;2.13;;;1.33;;
20036;SDS011;10179;42.640;23.312;2024-01-30T07:45:08;1.95;;;1.48;;
20036;SDS011;10179;42.640;23.312;2024-01-30T07:47:34;1.35;;;0.93;;
20036;SDS011;10179;42.640;23.312;2024-01-30T07:49:59;2.03;;;1.20;;
20036;SDS011;10179;42.640;23.312;2024-01-30T07:52:25;2.65;;;1.60;;
20036;SDS011;10179;42.640;23.312;2024-01-30T07:54:50;2.78;;;1.90;;
20036;SDS011;10179;42.640;23.312;2024-01-30T07:57:16;3.15;;;1.83;;
20036;SDS011;10179;42.640;23.312;2024-01-30T07:59:43;4.05;;;1.60;;
20036;SDS011;10179;42.640;23.312;2024-01-30T08:02:09;8.85;;;2.22;;
20036;SDS011;10179;42.640;23.312;2024-01-30T08:04:35;5.55;;;2.00;;
20036;SDS011;10179;42.640;23.312;2024-01-30T08:07:00;11.30;;;2.67;;
20036;SDS011;10179;42.640;23.312;2024-01-30T08:09:26;3.95;;;2.72;;
20036;SDS011;10179;42.640;23.312;2024-01-30T08:11:51;4.60;;;2.80;;
20036;SDS011;10179;42.640;23.312;2024-01-30T08:14:17;4.40;;;2.47;;
20036;SDS011;10179;42.640;23.312;2024-01-30T08:16:43;5.88;;;1.73;;
20036;SDS011;10179;42.640;23.312;2024-01-30T08:19:08;5.97;;;2.47;;
20036;SDS011;10179;42.640;23.312;2024-01-30T08:21:33;8.25;;;2.80;;
20036;SDS011;10179;42.640;23.312;2024-01-30T08:24:04;6.28;;;2.88;;
20036;SDS011;10179;42.640;23.312;2024-01-30T08:26:31;3.85;;;2.08;;
20036;SDS011;10179;42.640;23.312;2024-01-30T08:28:57;7.47;;;2.40;;
20036;SDS011;10179;42.640;23.312;2024-01-30T08:31:22;3.17;;;2.17;;
20036;SDS011;10179;42.640;23.312;2024-01-30T08:33:48;3.85;;;1.88;;
20036;SDS011;10179;42.640;23.312;2024-01-30T08:36:14;6.22;;;2.25;;
20036;SDS011;10179;42.640;23.312;2024-01-30T08:38:40;5.75;;;2.40;;
20036;SDS011;10179;42.640;23.312;2024-01-30T08:41:05;3.88;;;2.58;;
20036;SDS011;10179;42.640;23.312;2024-01-30T08:43:32;3.55;;;2.15;;
20036;SDS011;10179;42.640;23.312;2024-01-30T08:46:01;4.32;;;2.80;;
20036;SDS011;10179;42.640;23.312;2024-01-30T08:48:26;6.00;;;2.47;;
20036;SDS011;10179;42.640;23.312;2024-01-30T08:50:52;3.45;;;2.35;;
20036;SDS011;10179;42.640;23.312;2024-01-30T08:53:17;5.47;;;2.33;;
20036;SDS011;10179;42.640;23.312;2024-01-30T08:55:43;3.80;;;2.35;;
20036;SDS011;10179;42.640;23.312;2024-01-30T08:58:09;8.05;;;2.88;;
20036;SDS011;10179;42.640;23.312;2024-01-30T09:00:34;6.50;;;2.08;;
20036;SDS011;10179;42.640;23.312;2024-01-30T09:03:00;5.25;;;2.97;;
20036;SDS011;10179;42.640;23.312;2024-01-30T09:05:25;4.35;;;1.95;;
20036;SDS011;10179;42.640;23.312;2024-01-30T09:07:50;4.32;;;2.60;;
20036;SDS011;10179;42.640;23.312;2024-01-30T09:10:16;9.02;;;3.28;;
20036;SDS011;10179;42.640;23.312;2024-01-30T09:12:41;5.20;;;2.78;;
20036;SDS011;10179;42.640;23.312;2024-01-30T09:15:07;7.78;;;3.92;;
20036;SDS011;10179;42.640;23.312;2024-01-30T09:17:33;6.07;;;2.55;;
20036;SDS011;10179;42.640;23.312;2024-01-30T09:19:58;3.97;;;1.90;;
20036;SDS011;10179;42.640;23.312;2024-01-30T09:22:24;6.68;;;3.47;;
20036;SDS011;10179;42.640;23.312;2024-01-30T09:24:50;5.15;;;2.90;;
20036;SDS011;10179;42.640;23.312;2024-01-30T09:27:15;10.98;;;4.95;;
20036;SDS011;10179;42.640;23.312;2024-01-30T09:29:40;7.38;;;3.78;;
20036;SDS011;10179;42.640;23.312;2024-01-30T09:32:06;6.05;;;3.30;;
20036;SDS011;10179;42.640;23.312;2024-01-30T09:34:32;5.32;;;2.80;;
20036;SDS011;10179;42.640;23.312;2024-01-30T09:36:58;6.88;;;3.58;;
20036;SDS011;10179;42.640;23.312;2024-01-30T09:39:24;7.32;;;3.42;;
20036;SDS011;10179;42.640;23.312;2024-01-30T09:42:33;5.45;;;3.13;;
20036;SDS011;10179;42.640;23.312;2024-01-30T09:44:57;6.18;;;2.92;;
20036;SDS011;10179;42.640;23.312;2024-01-30T09:47:23;6.95;;;3.40;;
20036;SDS011;10179;42.640;23.312;2024-01-30T09:49:49;9.77;;;3.72;;
20036;SDS011;10179;42.640;23.312;2024-01-30T09:52:16;11.18;;;4.00;;
20036;SDS011;10179;42.640;23.312;2024-01-30T09:54:41;6.45;;;3.47;;
20036;SDS011;10179;42.640;23.312;2024-01-30T09:57:08;15.05;;;4.68;;
20036;SDS011;10179;42.640;23.312;2024-01-30T09:59:34;6.95;;;3.72;;
20036;SDS011;10179;42.640;23.312;2024-01-30T10:02:00;8.88;;;3.97;;
20036;SDS011;10179;42.640;23.312;2024-01-30T10:04:25;4.95;;;3.50;;
20036;SDS011;10179;42.640;23.312;2024-01-30T10:06:51;6.97;;;3.78;;
20036;SDS011;10179;42.640;23.312;2024-01-30T10:09:16;6.32;;;3.42;;
20036;SDS011;10179;42.640;23.312;2024-01-30T10:11:42;6.60;;;3.92;;
20036;SDS011;10179;42.640;23.312;2024-01-30T10:14:07;6.45;;;4.03;;
20036;SDS011;10179;42.640;23.312;2024-01-30T10:16:34;7.95;;;4.60;;
20036;SDS011;10179;42.640;23.312;2024-01-30T10:18:59;11.85;;;5.20;;
20036;SDS011;10179;42.640;23.312;2024-01-30T10:21:25;14.65;;;5.03;;
20036;SDS011;10179;42.640;23.312;2024-01-30T10:23:50;6.85;;;3.97;;
20036;SDS011;10179;42.640;23.312;2024-01-30T10:26:16;6.40;;;3.25;;
20036;SDS011;10179;42.640;23.312;2024-01-30T10:28:45;6.47;;;3.13;;
20036;SDS011;10179;42.640;23.312;2024-01-30T10:31:10;2.28;;;1.17;;
20036;SDS011;10179;42.640;23.312;2024-01-30T10:33:36;8.02;;;3.50;;
20036;SDS011;10179;42.640;23.312;2024-01-30T10:36:02;6.70;;;3.20;;
20036;SDS011;10179;42.640;23.312;2024-01-30T10:38:29;5.78;;;3.70;;
20036;SDS011;10179;42.640;23.312;2024-01-30T10:40:59;8.57;;;3.83;;
20036;SDS011;10179;42.640;23.312;2024-01-30T10:43:30;7.13;;;3.40;;
20036;SDS011;10179;42.640;23.312;2024-01-30T10:46:18;5.30;;;2.97;;
20036;SDS011;10179;42.640;23.312;2024-01-30T10:48:44;5.18;;;3.30;;
20036;SDS011;10179;42.640;23.312;2024-01-30T10:51:15;6.20;;;3.15;;
20036;SDS011;10179;42.640;23.312;2024-01-30T10:53:41;5.38;;;3.33;;
20036;SDS011;10179;42.640;23.312;2024-01-30T10:56:11;6.22;;;3.88;;
20036;SDS011;10179;42.640;23.312;2024-01-30T10:58:38;6.18;;;3.28;;
20036;SDS011;10179;42.640;23.312;2024-01-30T11:01:03;6.63;;;3.42;;
20036;SDS011;10179;42.640;23.312;2024-01-30T11:03:31;6.88;;;2.70;;
20036;SDS011;10179;42.640;23.312;2024-01-30T11:05:59;5.93;;;3.13;;
20036;SDS011;10179;42.640;23.312;2024-01-30T11:08:26;7.00;;;3.03;;
20036;SDS011;10179;42.640;23.312;2024-01-30T11:10:57;12.32;;;3.53;;
20036;SDS011;10179;42.640;23.312;2024-01-30T11:13:30;4.15;;;2.50;;
20036;SDS011;10179;42.640;23.312;2024-01-30T11:18:31;8.75;;;3.10;;
20036;SDS011;10179;42.640;23.312;2024-01-30T11:20:58;3.35;;;2.08;;
20036;SDS011;10179;42.640;23.312;2024-01-30T11:23:27;3.10;;;1.77;;
20036;SDS011;10179;42.640;23.312;2024-01-30T11:25:53;3.90;;;2.22;;
20036;SDS011;10179;42.640;23.312;2024-01-30T11:28:20;5.60;;;2.75;;
20036;SDS011;10179;42.640;23.312;2024-01-30T11:30:47;5.88;;;2.95;;
20036;SDS011;10179;42.640;23.312;2024-01-30T11:33:16;9.05;;;3.40;;
20036;SDS011;10179;42.640;23.312;2024-01-30T11:35:56;4.68;;;3.22;;
20036;SDS011;10179;42.640;23.312;2024-01-30T11:38:24;6.20;;;2.78;;
20036;SDS011;10179;42.640;23.312;2024-01-30T11:40:50;4.90;;;2.88;;
20036;SDS011;10179;42.640;23.312;2024-01-30T11:43:17;4.95;;;2.90;;
20036;SDS011;10179;42.640;23.312;2024-01-30T11:45:44;4.75;;;3.08;;
20036;SDS011;10179;42.640;23.312;2024-01-30T11:48:11;6.43;;;3.40;;
20036;SDS011;10179;42.640;23.312;2024-01-30T11:50:38;4.95;;;3.00;;
20036;SDS011;10179;42.640;23.312;2024-01-30T11:53:05;6.53;;;3.80;;
20036;SDS011;10179;42.640;23.312;2024-01-30T11:55:31;4.63;;;3.03;;
20036;SDS011;10179;42.640;23.312;2024-01-30T11:57:57;5.90;;;3.03;;
20036;SDS011;10179;42.640;23.312;2024-01-30T12:00:23;7.43;;;3.10;;
20036;SDS011;10179;42.640;23.312;2024-01-30T12:02:52;4.53;;;2.50;;
20036;SDS011;10179;42.640;23.312;2024-01-30T12:05:24;5.13;;;3.08;;
20036;SDS011;10179;42.640;23.312;2024-01-30T12:07:50;7.68;;;2.78;;
20036;SDS011;10179;42.640;23.312;2024-01-30T12:10:16;6.53;;;3.17;;
20036;SDS011;10179;42.640;23.312;2024-01-30T12:12:45;3.35;;;2.20;;
20036;SDS011;10179;42.640;23.312;2024-01-30T12:15:12;4.95;;;2.60;;
20036;SDS011;10179;42.640;23.312;2024-01-30T12:17:38;9.40;;;2.92;;
20036;SDS011;10179;42.640;23.312;2024-01-30T12:22:41;5.05;;;2.90;;
20036;SDS011;10179;42.640;23.312;2024-01-30T12:25:11;6.60;;;2.55;;
20036;SDS011;10179;42.640;23.312;2024-01-30T12:27:38;6.93;;;3.50;;
20036;SDS011;10179;42.640;23.312;2024-01-30T12:30:05;3.40;;;1.95;;
20036;SDS011;10179;42.640;23.312;2024-01-30T12:32:34;4.55;;;2.72;;
20036;SDS011;10179;42.640;23.312;2024-01-30T12:35:09;3.38;;;2.33;;
20036;SDS011;10179;42.640;23.312;2024-01-30T12:37:35;5.43;;;3.17;;
20036;SDS011;10179;42.640;23.312;2024-01-30T12:40:01;4.20;;;3.03;;
20036;SDS011;10179;42.640;23.312;2024-01-30T12:42:27;6.03;;;3.20;;
20036;SDS011;10179;42.640;23.312;2024-01-30T12:44:53;4.32;;;2.90;;
20036;SDS011;10179;42.640;23.312;2024-01-30T12:47:21;5.50;;;3.55;;
20036;SDS011;10179;42.640;23.312;2024-01-30T12:49:46;4.43;;;2.72;;
20036;SDS011;10179;42.640;23.312;2024-01-30T12:52:13;5.38;;;3.30;;
20036;SDS011;10179;42.640;23.312;2024-01-30T12:54:39;8.65;;;3.13;;
20036;SDS011;10179;42.640;23.312;2024-01-30T12:57:05;7.97;;;4.75;;
20036;SDS011;10179;42.640;23.312;2024-01-30T12:59:31;8.10;;;4.00;;
20036;SDS011;10179;42.640;23.312;2024-01-30T13:01:56;10.38;;;4.38;;
20036;SDS011;10179;42.640;23.312;2024-01-30T13:04:24;9.30;;;3.72;;
20036;SDS011;10179;42.640;23.312;2024-01-30T13:06:49;5.53;;;2.78;;
20036;SDS011;10179;42.640;23.312;2024-01-30T13:09:14;9.20;;;4.15;;
20036;SDS011;10179;42.640;23.312;2024-01-30T13:11:40;7.22;;;3.92;;
20036;SDS011;10179;42.640;23.312;2024-01-30T13:14:06;14.50;;;3.72;;
20036;SDS011;10179;42.640;23.312;2024-01-30T13:16:31;3.50;;;2.35;;
20036;SDS011;10179;42.640;23.312;2024-01-30T13:18:57;6.28;;;3.33;;
20036;SDS011;10179;42.640;23.312;2024-01-30T13:21:22;10.85;;;4.38;;
20036;SDS011;10179;42.640;23.312;2024-01-30T13:23:48;7.85;;;3.47;;
20036;SDS011;10179;42.640;23.312;2024-01-30T13:26:18;6.95;;;3.92;;
20036;SDS011;10179;42.640;23.312;2024-01-30T13:28:43;6.50;;;3.53;;
20036;SDS011;10179;42.640;23.312;2024-01-30T13:31:09;4.78;;;2.92;;
20036;SDS011;10179;42.640;23.312;2024-01-30T13:33:34;6.93;;;4.28;;
20036;SDS011;10179;42.640;23.312;2024-01-30T13:36:00;5.95;;;3.75;;
20036;SDS011;10179;42.640;23.312;2024-01-30T13:38:25;16.15;;;3.65;;
20036;SDS011;10179;42.640;23.312;2024-01-30T13:40:51;8.88;;;3.60;;
20036;SDS011;10179;42.640;23.312;2024-01-30T13:43:17;5.57;;;3.28;;
20036;SDS011;10179;42.640;23.312;2024-01-30T13:45:42;6.93;;;3.85;;
20036;SDS011;10179;42.640;23.312;2024-01-30T13:48:08;7.38;;;3.38;;
20036;SDS011;10179;42.640;23.312;2024-01-30T13:50:34;4.38;;;2.20;;
20036;SDS011;10179;42.640;23.312;2024-01-30T13:52:59;4.90;;;3.05;;
20036;SDS011;10179;42.640;23.312;2024-01-30T13:55:25;11.80;;;3.70;;
20036;SDS011;10179;42.640;23.312;2024-01-30T13:57:50;6.03;;;3.00;;
20036;SDS011;10179;42.640;23.312;2024-01-30T14:00:16;6.72;;;3.70;;
20036;SDS011;10179;42.640;23.312;2024-01-30T14:02:42;8.50;;;3.90;;
20036;SDS011;10179;42.640;23.312;2024-01-30T14:05:08;3.70;;;2.17;;
20036;SDS011;10179;42.640;23.312;2024-01-30T14:07:35;17.60;;;4.72;;
20036;SDS011;10179;42.640;23.312;2024-01-30T14:10:01;6.45;;;3.25;;
20036;SDS011;10179;42.640;23.312;2024-01-30T14:12:27;7.90;;;4.30;;
20036;SDS011;10179;42.640;23.312;2024-01-30T14:14:52;9.18;;;3.78;;
20036;SDS011;10179;42.640;23.312;2024-01-30T14:17:18;6.75;;;4.53;;
20036;SDS011;10179;42.640;23.312;2024-01-30T14:19:43;10.63;;;4.72;;
20036;SDS011;10179;42.640;23.312;2024-01-30T14:22:08;20.55;;;7.72;;
20036;SDS011;10179;42.640;23.312;2024-01-30T14:24:34;6.65;;;3.28;;
20036;SDS011;10179;42.640;23.312;2024-01-30T14:26:59;11.68;;;4.35;;
20036;SDS011;10179;42.640;23.312;2024-01-30T14:29:25;10.50;;;3.53;;
20036;SDS011;10179;42.640;23.312;2024-01-30T14:31:51;7.78;;;4.25;;